Independence of the Seas — C6WW4 — position and weather

sailwx.info

Track history (hours):
 
Tides and Currents Weather Stations Pressure Air Temp Water Temp Dewpoint Dewpoint Depression Visibility Wind Speed Wind Dir Waves Ship Positions

Independence of the Seas

Last reported at 2014-Dec-14 23:33 UTC. Time now 2014-Dec-19 06:33 UTC.
Position N 25°53' W 080°03'.

Length 339 m; draft 8.8 m.

Type: Passenger vessel. MMSI: 309374000.

Date/timePositionNaut miles runAvg speedWind from/ knotsBaromVisibWave heightAir tempDewpointWater temp
2014-Dec-14 23:33N 25°53' W 080°03'1312.7
2014-Dec-14 22:33N 26°06' W 080°07'1 0.7
2014-Dec-14 21:32N 26°05' W 080°07'0 0.0
2014-Dec-14 20:32N 26°05' W 080°07'0 0.0
2014-Dec-14 19:32N 26°05' W 080°07'0 0.0
2014-Dec-14 18:32N 26°05' W 080°07'0 0.0
2014-Dec-14 17:32N 26°05' W 080°07'0 0.0
2014-Dec-14 16:32N 26°05' W 080°07'0 0.0
2014-Dec-14 15:23N 26°05' W 080°07'0 0.0
2014-Dec-14 14:26N 26°05' W 080°07'0 0.0
2014-Dec-14 13:26N 26°05' W 080°07'0 0.0
2014-Dec-14 12:26N 26°05' W 080°07'0 0.0
2014-Dec-14 11:29N 26°05' W 080°07'0 0.0
2014-Dec-14 10:34N 26°05' W 080°07'5 4.5
2014-Dec-14 09:34N 26°04' W 080°02'1413.9
2014-Dec-14 08:33N 25°51' W 079°56'  
2014-Dec-10 02:31N 17°52' W 063°28'7 7.6
2014-Dec-10 01:33N 17°59' W 063°28'7 6.9
2014-Dec-10 00:32N 18°01' W 063°21'8 7.3
2014-Dec-09 23:27N 18°01' W 063°13'8 7.6
2014-Dec-09 22:23N 18°00' W 063°04'1 0.4
2014-Dec-09 19:33N 18°01' W 063°03'0 0.0
2014-Dec-09 13:23N 18°01' W 063°03'2 0.8
2014-Dec-09 11:18N 18°00' W 063°04'1113.9
2014-Dec-09 10:32N 18°05' W 063°15'1816.9
2014-Dec-09 09:29N 18°15' W 063°30'  
2014-Dec-07 00:13N 26°08' W 079°37'1218.5
2014-Dec-06 23:33N 26°07' W 079°50'1414.4
2014-Dec-06 22:33N 26°06' W 080°07'1 0.8
2014-Dec-06 21:33N 26°05' W 080°07'0 0.0
2014-Dec-06 20:33N 26°05' W 080°07'0 0.0
2014-Dec-06 19:33N 26°05' W 080°07'0 0.0
2014-Dec-06 18:33N 26°05' W 080°07'0 0.0
2014-Dec-06 17:24N 26°05' W 080°07'0 0.0
2014-Dec-06 16:27N 26°05' W 080°07'0 0.0
2014-Dec-06 15:27N 26°05' W 080°07'0 0.0
2014-Dec-06 14:27N 26°05' W 080°07'0 0.0
2014-Dec-06 13:30N 26°05' W 080°07'0 0.0
2014-Dec-06 12:30N 26°05' W 080°07'0 0.0
2014-Dec-06 11:30N 26°05' W 080°07'0 0.0
2014-Dec-06 10:33N 26°05' W 080°07'3 3.4
2014-Dec-06 09:33N 26°06' W 080°03'1212.5
2014-Dec-06 08:34N 25°54' W 079°58'  
Track history (hours):
 
Tides and Currents Weather Stations Pressure Air Temp Water Temp Dewpoint Dewpoint Depression Visibility Wind Speed Wind Dir Waves Ship Positions

Independence of the Seas

Last reported at 2014-Dec-14 23:33 UTC. Time now 2014-Dec-19 06:33 UTC.
Position N 25°53' W 080°03'.

Length 339 m; draft 8.8 m.

Type: Passenger vessel. MMSI: 309374000.

Date/timePositionNaut miles runAvg speedWind from/ knotsBaromVisibWave heightAir tempDewpointWater temp
2014-Dec-14 23:33N 25°53' W 080°03'1312.7
2014-Dec-14 22:33N 26°06' W 080°07'1 0.7
2014-Dec-14 21:32N 26°05' W 080°07'0 0.0
2014-Dec-14 20:32N 26°05' W 080°07'0 0.0
2014-Dec-14 19:32N 26°05' W 080°07'0 0.0
2014-Dec-14 18:32N 26°05' W 080°07'0 0.0
2014-Dec-14 17:32N 26°05' W 080°07'0 0.0
2014-Dec-14 16:32N 26°05' W 080°07'0 0.0
2014-Dec-14 15:23N 26°05' W 080°07'0 0.0
2014-Dec-14 14:26N 26°05' W 080°07'0 0.0
2014-Dec-14 13:26N 26°05' W 080°07'0 0.0
2014-Dec-14 12:26N 26°05' W 080°07'0 0.0
2014-Dec-14 11:29N 26°05' W 080°07'0 0.0
2014-Dec-14 10:34N 26°05' W 080°07'5 4.5
2014-Dec-14 09:34N 26°04' W 080°02'1413.9
2014-Dec-14 08:33N 25°51' W 079°56'  
2014-Dec-10 02:31N 17°52' W 063°28'7 7.6
2014-Dec-10 01:33N 17°59' W 063°28'7 6.9
2014-Dec-10 00:32N 18°01' W 063°21'8 7.3
2014-Dec-09 23:27N 18°01' W 063°13'8 7.6
2014-Dec-09 22:23N 18°00' W 063°04'1 0.4
2014-Dec-09 19:33N 18°01' W 063°03'0 0.0
2014-Dec-09 13:23N 18°01' W 063°03'2 0.8
2014-Dec-09 11:18N 18°00' W 063°04'1113.9
2014-Dec-09 10:32N 18°05' W 063°15'1816.9
2014-Dec-09 09:29N 18°15' W 063°30'  
2014-Dec-07 00:13N 26°08' W 079°37'1218.5
2014-Dec-06 23:33N 26°07' W 079°50'1414.4
2014-Dec-06 22:33N 26°06' W 080°07'1 0.8
2014-Dec-06 21:33N 26°05' W 080°07'0 0.0
2014-Dec-06 20:33N 26°05' W 080°07'0 0.0
2014-Dec-06 19:33N 26°05' W 080°07'0 0.0
2014-Dec-06 18:33N 26°05' W 080°07'0 0.0
2014-Dec-06 17:24N 26°05' W 080°07'0 0.0
2014-Dec-06 16:27N 26°05' W 080°07'0 0.0
2014-Dec-06 15:27N 26°05' W 080°07'0 0.0
2014-Dec-06 14:27N 26°05' W 080°07'0 0.0
2014-Dec-06 13:30N 26°05' W 080°07'0 0.0
2014-Dec-06 12:30N 26°05' W 080°07'0 0.0
2014-Dec-06 11:30N 26°05' W 080°07'0 0.0
2014-Dec-06 10:33N 26°05' W 080°07'3 3.4
2014-Dec-06 09:33N 26°06' W 080°03'1212.5
2014-Dec-06 08:34N 25°54' W 079°58'  

Dump ship's entire track history